Terminal Aerodrome Forecast
Issued by NWS

Home | Current Version | Previous Version | Text Only | Print | Product List | Glossary On
Versions: 1 2 3 4 5 6 7 8 9 10 11 12 13 14 15 16 17
000
FTUS45 KABQ 172345
TAFROW
TAF
KROW 172345Z 1800/1824 15009KT P6SM -RA SCT025 OVC050
     FM180800 VRB05KT 2SM BR BKN010 OVC030
     FM181000 17002KT P6SM BKN050
     FM181300 18003KT P6SM BKN250=

USA.gov is the U.S. government's official web portal to all federal, state and local government web resources and services.